createdAt,value
2022-09-22T00:01:00.985Z,7.73
2022-09-22T00:03:36.473Z,7.78
2022-09-22T00:06:17.208Z,7.77
2022-09-22T00:08:48.267Z,7.65
2022-09-22T00:11:37.491Z,7.71
2022-09-22T00:14:09.517Z,7.58
2022-09-22T00:16:45.301Z,7.48
2022-09-22T00:19:18.162Z,7.42
2022-09-22T00:21:48.620Z,7.46
2022-09-22T00:24:16.298Z,7.40
2022-09-22T00:26:43.180Z,7.25
2022-09-22T00:29:13.061Z,7.42
2022-09-22T00:31:41.611Z,7.35
2022-09-22T00:34:13.695Z,7.27
2022-09-22T00:38:05.835Z,7.42
2022-09-22T00:40:34.377Z,7.40
2022-09-22T00:43:25.899Z,7.22
2022-09-22T00:45:57.436Z,7.00
2022-09-22T00:48:27.044Z,7.31
2022-09-22T00:50:56.058Z,7.32
2022-09-22T00:53:25.141Z,7.28
2022-09-22T00:55:57.661Z,7.33
2022-09-22T00:58:35.897Z,7.26
2022-09-22T01:01:03.246Z,7.17
2022-09-22T01:03:31.095Z,7.05
2022-09-22T01:06:02.286Z,7.11
2022-09-22T01:08:31.340Z,6.99
2022-09-22T01:10:59.449Z,6.63
2022-09-22T01:13:59.690Z,6.88
2022-09-22T01:16:47.847Z,6.93
2022-09-22T01:19:43.701Z,6.98
2022-09-22T01:22:19.613Z,7.05
2022-09-22T01:25:06.264Z,7.05
2022-09-22T01:27:54.435Z,6.99
2022-09-22T01:30:56.328Z,7.01
2022-09-22T01:33:55.288Z,6.93
2022-09-22T01:36:27.261Z,6.38
2022-09-22T01:39:16.113Z,6.39
2022-09-22T01:41:54.124Z,6.31
2022-09-22T01:44:34.314Z,6.25
2022-09-22T01:47:17.934Z,6.36
2022-09-22T01:49:52.012Z,6.26
2022-09-22T01:52:22.330Z,6.22
2022-09-22T01:54:58.568Z,6.43
2022-09-22T01:57:28.180Z,6.48
2022-09-22T02:00:03.757Z,6.42
2022-09-22T02:02:53.630Z,6.46
2022-09-22T02:05:32.785Z,6.46
2022-09-22T02:08:05.137Z,6.41
2022-09-22T02:10:36.678Z,6.16
2022-09-22T02:13:03.508Z,6.42
2022-09-22T02:15:48.822Z,6.42
2022-09-22T02:18:22.916Z,6.71
2022-09-22T02:20:50.563Z,6.74
2022-09-22T02:23:17.349Z,6.56
2022-09-22T02:25:45.339Z,6.57
2022-09-22T02:28:16.532Z,6.34
2022-09-22T02:31:04.332Z,6.30
2022-09-22T02:33:38.410Z,6.38
2022-09-22T02:36:23.718Z,6.41
2022-09-22T02:39:02.073Z,6.31
2022-09-22T02:42:25.957Z,6.38
2022-09-22T02:45:01.640Z,6.39
2022-09-22T02:47:39.680Z,6.30
2022-09-22T02:50:10.658Z,6.29
2022-09-22T02:52:38.750Z,6.27
2022-09-22T02:55:07.524Z,6.32
2022-09-22T02:57:34.287Z,6.11
2022-09-22T03:00:01.203Z,6.13
2022-09-22T03:02:28.127Z,5.99
2022-09-22T03:04:54.845Z,6.06
2022-09-22T03:07:21.632Z,6.03
2022-09-22T03:09:48.364Z,6.10
2022-09-22T03:12:15.098Z,6.07
2022-09-22T03:14:41.958Z,6.10
2022-09-22T03:17:08.830Z,6.28
2022-09-22T03:19:35.546Z,6.18
2022-09-22T03:22:02.240Z,5.84
2022-09-22T03:24:29.094Z,5.93
2022-09-22T03:26:55.990Z,5.95
2022-09-22T03:29:22.665Z,5.98
2022-09-22T03:31:49.354Z,5.82
2022-09-22T03:34:16.267Z,5.71
2022-09-22T03:36:43.056Z,5.69
2022-09-22T03:39:09.744Z,5.53
2022-09-22T03:41:37.540Z,5.68
2022-09-22T03:44:06.101Z,5.77
2022-09-22T03:46:34.474Z,5.71
2022-09-22T03:49:03.149Z,5.51
2022-09-22T03:51:30.916Z,5.69
2022-09-22T03:53:57.829Z,5.55
2022-09-22T03:56:24.706Z,5.54
2022-09-22T03:58:51.420Z,5.57
2022-09-22T04:01:18.200Z,5.63
2022-09-22T04:03:45.117Z,5.72
2022-09-22T04:06:12.012Z,5.67
2022-09-22T04:08:38.812Z,5.64
2022-09-22T04:11:05.893Z,5.61
2022-09-22T04:13:32.872Z,5.61
2022-09-22T04:15:59.506Z,5.60
2022-09-22T04:18:26.596Z,5.59
2022-09-22T04:20:58.109Z,5.59
2022-09-22T04:23:26.498Z,5.61
2022-09-22T04:25:53.485Z,5.63
2022-09-22T04:28:20.224Z,5.52
2022-09-22T04:30:47.548Z,5.54
2022-09-22T04:33:14.417Z,5.63
2022-09-22T04:35:41.260Z,5.69
2022-09-22T04:38:07.925Z,5.78
2022-09-22T04:40:34.803Z,6.17
2022-09-22T04:43:01.669Z,6.28
2022-09-22T04:45:28.465Z,6.31
2022-09-22T04:47:55.197Z,6.47
2022-09-22T04:50:22.821Z,6.49
2022-09-22T04:52:55.150Z,6.72
2022-09-22T04:55:23.384Z,6.84
2022-09-22T04:57:57.380Z,6.80
2022-09-22T05:00:27.077Z,6.90
2022-09-22T05:02:54.091Z,6.83
2022-09-22T05:05:21.211Z,6.76
2022-09-22T05:07:53.992Z,6.77
2022-09-22T05:10:25.369Z,6.80
2022-09-22T05:12:53.575Z,6.80
2022-09-22T05:15:22.485Z,6.83
2022-09-22T05:17:51.541Z,6.84
2022-09-22T05:20:19.614Z,6.76
2022-09-22T05:22:47.520Z,6.62
2022-09-22T05:25:17.533Z,6.38
2022-09-22T05:27:48.791Z,6.12
2022-09-22T05:30:16.566Z,5.94
2022-09-22T05:32:45.598Z,5.81
2022-09-22T05:35:13.935Z,6.34
2022-09-22T05:37:44.730Z,6.42
2022-09-22T05:40:12.485Z,6.59
2022-09-22T05:42:44.193Z,6.66
2022-09-22T05:45:11.262Z,6.65
2022-09-22T05:47:39.487Z,6.57
2022-09-22T05:50:07.357Z,6.58
2022-09-22T05:52:36.401Z,6.78
2022-09-22T05:55:07.207Z,6.41
2022-09-22T05:57:34.096Z,6.36
2022-09-22T06:00:00.942Z,6.46
2022-09-22T06:02:27.651Z,6.45
2022-09-22T06:04:54.437Z,6.39
2022-09-22T06:07:21.872Z,6.56
2022-09-22T06:09:49.311Z,6.57
2022-09-22T06:12:16.844Z,6.49
2022-09-22T06:14:53.803Z,6.68
2022-09-22T06:17:20.509Z,6.64
2022-09-22T06:19:50.336Z,6.51
2022-09-22T06:22:18.052Z,6.88
2022-09-22T06:24:45.299Z,6.72
2022-09-22T06:27:12.116Z,6.84
2022-09-22T06:29:38.944Z,7.09
2022-09-22T06:32:10.106Z,7.10
2022-09-22T06:34:38.005Z,7.36
2022-09-22T06:37:08.694Z,7.41
2022-09-22T06:39:37.566Z,7.40
2022-09-22T06:42:05.635Z,7.65
2022-09-22T06:44:32.971Z,7.75
2022-09-22T06:47:25.598Z,8.31
2022-09-22T06:49:52.399Z,8.77
2022-09-22T06:52:19.129Z,9.30
2022-09-22T06:54:45.919Z,9.75
2022-09-22T06:57:13.118Z,10.12
2022-09-22T06:59:41.169Z,10.51
2022-09-22T07:02:09.631Z,10.77
2022-09-22T07:04:36.510Z,11.11
2022-09-22T07:07:03.957Z,11.33
2022-09-22T07:09:31.957Z,11.76
2022-09-22T07:12:00.284Z,12.06
2022-09-22T07:14:27.053Z,12.31
2022-09-22T07:16:55.214Z,12.56
2022-09-22T07:19:21.967Z,12.74
2022-09-22T07:21:48.860Z,12.95
2022-09-22T07:24:15.694Z,13.17
2022-09-22T07:26:44.014Z,13.29
2022-09-22T07:29:16.730Z,13.45
2022-09-22T07:31:44.226Z,13.49
2022-09-22T07:34:11.021Z,13.57
2022-09-22T07:36:37.817Z,13.84
2022-09-22T07:39:10.997Z,13.81
2022-09-22T07:41:44.116Z,13.95
2022-09-22T07:44:31.951Z,14.32
2022-09-22T07:46:59.251Z,14.70
2022-09-22T07:49:26.339Z,14.85
2022-09-22T07:51:57.213Z,15.06
2022-09-22T07:54:25.779Z,15.38
2022-09-22T07:56:56.021Z,15.40
2022-09-22T07:59:22.814Z,15.57
2022-09-22T08:01:50.752Z,15.87
2022-09-22T08:04:22.773Z,15.71
2022-09-22T08:06:55.439Z,16.02
2022-09-22T08:09:23.616Z,16.35
2022-09-22T08:11:50.847Z,16.63
2022-09-22T08:14:38.490Z,17.10
2022-09-22T08:17:12.182Z,17.24
2022-09-22T08:19:38.931Z,17.20
2022-09-22T08:22:05.544Z,17.84
2022-09-22T08:24:34.727Z,19.13
2022-09-22T08:27:01.643Z,19.47
2022-09-22T08:29:28.368Z,19.55
2022-09-22T08:31:55.347Z,19.63
2022-09-22T08:34:22.394Z,19.71
2022-09-22T08:36:49.418Z,20.65
2022-09-22T08:39:17.687Z,21.30
2022-09-22T08:42:06.026Z,21.93
2022-09-22T08:44:43.866Z,22.34
2022-09-22T08:47:38.478Z,22.27
2022-09-22T08:50:37.240Z,21.88
2022-09-22T08:53:09.966Z,22.19
2022-09-22T08:55:41.157Z,22.54
2022-09-22T08:58:26.167Z,22.60
2022-09-22T09:01:19.034Z,22.94
2022-09-22T09:04:00.798Z,23.05
2022-09-22T09:06:56.666Z,22.40
2022-09-22T09:10:13.107Z,22.18
2022-09-22T09:12:51.984Z,21.86
2022-09-22T09:15:27.244Z,21.54
2022-09-22T09:17:59.143Z,21.57
2022-09-22T09:20:45.167Z,21.62
2022-09-22T09:23:18.247Z,21.56
2022-09-22T09:25:50.142Z,21.35
2022-09-22T09:28:25.402Z,21.03
2022-09-22T09:31:02.329Z,21.32
2022-09-22T09:33:38.952Z,21.59
2022-09-22T09:36:13.922Z,21.64
2022-09-22T09:38:51.986Z,21.41
2022-09-22T09:41:32.637Z,21.00
2022-09-22T09:44:03.989Z,21.35
2022-09-22T09:46:59.963Z,21.38
2022-09-22T09:49:29.154Z,21.33
2022-09-22T09:52:01.842Z,21.44
2022-09-22T09:54:29.017Z,21.61
2022-09-22T09:57:14.917Z,21.60
2022-09-22T10:00:02.967Z,21.52
2022-09-22T10:02:50.157Z,21.35
2022-09-22T10:05:16.756Z,21.10
2022-09-22T10:08:03.263Z,21.08
2022-09-22T10:10:30.023Z,21.37
2022-09-22T10:13:05.978Z,21.34
2022-09-22T10:15:54.668Z,21.45
2022-09-22T10:18:47.706Z,21.35
2022-09-22T10:21:18.856Z,21.59
2022-09-22T10:23:49.088Z,21.97
2022-09-22T10:26:23.284Z,22.16
2022-09-22T10:29:20.895Z,22.38
2022-09-22T10:32:15.578Z,22.73
2022-09-22T10:34:51.197Z,22.02
2022-09-22T10:37:26.948Z,22.40
2022-09-22T10:39:58.817Z,22.54
2022-09-22T10:42:40.858Z,22.70
2022-09-22T10:45:13.516Z,22.50
2022-09-22T10:47:45.986Z,22.44
2022-09-22T10:50:12.795Z,22.01
2022-09-22T10:52:59.810Z,22.03
2022-09-22T10:55:55.725Z,22.08
2022-09-22T10:58:54.552Z,22.14
2022-09-22T11:01:49.402Z,22.21
2022-09-22T11:04:46.090Z,22.23
2022-09-22T11:07:54.381Z,22.24
2022-09-22T11:10:55.138Z,22.40
2022-09-22T11:13:46.507Z,22.45
2022-09-22T11:16:51.052Z,22.66
2022-09-22T11:19:35.806Z,22.25
2022-09-22T11:22:13.531Z,22.36
2022-09-22T11:25:05.136Z,22.27
2022-09-22T11:28:06.421Z,22.46
2022-09-22T11:30:59.463Z,22.97
2022-09-22T11:34:21.496Z,23.10
2022-09-22T11:37:25.505Z,23.38
2022-09-22T11:40:35.730Z,23.04
2022-09-22T11:43:29.707Z,22.44
2022-09-22T11:46:05.780Z,22.72
2022-09-22T11:48:53.650Z,23.30
2022-09-22T11:51:41.588Z,23.49
2022-09-22T11:55:00.421Z,23.13
2022-09-22T11:57:32.388Z,23.36
2022-09-22T12:00:05.879Z,23.50
2022-09-22T12:02:46.499Z,22.81
2022-09-22T12:05:20.602Z,23.01
2022-09-22T12:08:02.470Z,23.12
2022-09-22T12:10:38.098Z,22.99
2022-09-22T12:13:12.296Z,22.93
2022-09-22T12:18:47.143Z,22.84
2022-09-22T12:21:48.075Z,22.79
2022-09-22T12:24:15.031Z,23.04
2022-09-22T12:26:44.452Z,22.61
2022-09-22T12:29:11.116Z,22.52
2022-09-22T12:31:40.362Z,22.83
2022-09-22T12:34:15.086Z,23.26
2022-09-22T12:36:42.556Z,23.34
2022-09-22T12:39:17.672Z,23.74
2022-09-22T12:41:57.863Z,23.71
2022-09-22T12:44:29.775Z,23.57
2022-09-22T12:47:18.624Z,23.70
2022-09-22T12:49:53.939Z,23.35
2022-09-22T12:52:39.250Z,23.39
2022-09-22T12:55:29.510Z,23.87
2022-09-22T12:58:01.348Z,22.64
2022-09-22T13:00:40.954Z,21.78
2022-09-22T13:03:25.721Z,21.85
2022-09-22T13:06:04.092Z,22.54
2022-09-22T13:08:33.387Z,22.79
2022-09-22T13:11:07.569Z,23.19
2022-09-22T13:13:45.101Z,23.32
2022-09-22T13:16:14.558Z,23.33
2022-09-22T13:18:43.972Z,23.36
2022-09-22T13:21:13.918Z,23.44
2022-09-22T13:23:49.459Z,23.71
2022-09-22T13:26:18.696Z,23.65
2022-09-22T13:28:58.327Z,23.54
2022-09-22T13:31:25.302Z,22.95
2022-09-22T13:33:52.431Z,22.78
2022-09-22T13:36:23.606Z,22.68
2022-09-22T13:38:55.221Z,22.39
2022-09-22T13:41:28.141Z,22.50
2022-09-22T13:43:59.780Z,22.22
2022-09-22T13:46:33.026Z,21.97
2022-09-22T13:49:00.430Z,22.13
2022-09-22T13:51:29.362Z,22.17
2022-09-22T13:53:57.634Z,22.58
2022-09-22T13:56:26.392Z,22.79
2022-09-22T13:58:57.298Z,22.83
2022-09-22T14:01:26.132Z,23.02
2022-09-22T14:03:54.341Z,23.07
2022-09-22T14:06:22.612Z,22.88
2022-09-22T14:08:50.881Z,22.67
2022-09-22T14:11:24.602Z,22.32
2022-09-22T14:13:54.461Z,22.37
2022-09-22T14:16:27.005Z,22.22
2022-09-22T14:19:15.311Z,22.13
2022-09-22T14:21:55.921Z,21.96
2022-09-22T14:24:23.352Z,21.92
2022-09-22T14:26:54.161Z,21.80
2022-09-22T14:29:34.553Z,21.97
2022-09-22T14:32:16.924Z,21.99
2022-09-22T14:34:52.682Z,21.87
2022-09-22T14:37:26.390Z,21.70
2022-09-22T14:39:55.503Z,21.62
2022-09-22T14:42:30.151Z,21.35
2022-09-22T14:45:18.460Z,21.35
2022-09-22T14:47:45.348Z,21.37
2022-09-22T14:50:37.222Z,21.37
2022-09-22T14:53:05.071Z,21.42
2022-09-22T14:55:47.362Z,21.53
2022-09-22T14:58:23.586Z,21.52
2022-09-22T15:01:17.912Z,21.39
2022-09-22T15:03:54.707Z,20.88
2022-09-22T15:06:21.960Z,20.95
2022-09-22T15:08:52.101Z,20.69
2022-09-22T15:11:19.025Z,20.93
2022-09-22T15:13:50.801Z,20.92
2022-09-22T15:16:41.749Z,20.88
2022-09-22T15:19:13.081Z,20.98
2022-09-22T15:21:46.039Z,20.84
2022-09-22T15:24:14.513Z,20.78
2022-09-22T15:26:43.166Z,20.77
2022-09-22T15:29:12.123Z,20.80
2022-09-22T15:31:39.167Z,20.84
2022-09-22T15:34:24.387Z,20.59
2022-09-22T15:36:53.188Z,20.77
2022-09-22T15:39:21.846Z,20.74
2022-09-22T15:41:49.440Z,20.70
2022-09-22T15:44:16.680Z,20.63
2022-09-22T15:46:46.168Z,20.44
2022-09-22T15:49:22.518Z,20.39
2022-09-22T15:51:49.729Z,20.29
2022-09-22T15:54:19.205Z,20.22
2022-09-22T15:56:48.959Z,20.23
2022-09-22T15:59:19.860Z,20.05
2022-09-22T16:01:47.292Z,20.15
2022-09-22T16:04:14.148Z,19.99
2022-09-22T16:06:43.575Z,19.63
2022-09-22T16:09:16.541Z,19.87
2022-09-22T16:11:44.068Z,19.86
2022-09-22T16:14:29.604Z,19.65
2022-09-22T16:16:56.273Z,19.58
2022-09-22T16:19:22.991Z,19.54
2022-09-22T16:21:56.905Z,19.42
2022-09-22T16:24:23.806Z,19.31
2022-09-22T16:26:51.668Z,19.26
2022-09-22T16:29:18.550Z,19.13
2022-09-22T16:31:45.441Z,18.96
2022-09-22T16:34:12.519Z,18.83
2022-09-22T16:36:41.514Z,18.63
2022-09-22T16:39:08.266Z,18.65
2022-09-22T16:41:36.484Z,18.35
2022-09-22T16:44:04.713Z,18.35
2022-09-22T16:46:33.678Z,18.57
2022-09-22T16:49:06.152Z,20.00
2022-09-22T16:51:36.340Z,21.20
2022-09-22T16:54:05.500Z,20.73
2022-09-22T16:56:35.487Z,19.57
2022-09-22T16:59:03.143Z,18.88
2022-09-22T17:01:32.425Z,18.39
2022-09-22T17:04:00.201Z,18.09
2022-09-22T17:06:28.286Z,17.77
2022-09-22T17:08:57.326Z,17.62
2022-09-22T17:11:29.777Z,17.40
2022-09-22T17:14:11.967Z,17.21
2022-09-22T17:16:51.930Z,17.08
2022-09-22T17:19:27.697Z,17.04
2022-09-22T17:21:56.506Z,16.68
2022-09-22T17:24:25.057Z,16.85
2022-09-22T17:26:57.064Z,16.47
2022-09-22T17:29:34.853Z,16.57
2022-09-22T17:32:05.774Z,16.45
2022-09-22T17:34:33.729Z,16.28
2022-09-22T17:37:04.300Z,16.25
2022-09-22T17:39:32.170Z,16.08
2022-09-22T17:41:59.578Z,16.11
2022-09-22T17:44:28.917Z,16.01
2022-09-22T17:47:15.992Z,15.85
2022-09-22T17:50:01.129Z,15.78
2022-09-22T17:52:33.575Z,15.71
2022-09-22T17:55:14.255Z,15.67
2022-09-22T17:57:54.398Z,15.60
2022-09-22T18:00:23.041Z,15.52
2022-09-22T18:02:52.567Z,15.41
2022-09-22T18:05:21.982Z,15.42
2022-09-22T18:07:53.540Z,15.28
2022-09-22T18:10:21.469Z,15.22
2022-09-22T18:12:48.235Z,15.19
2022-09-22T18:15:18.028Z,15.03
2022-09-22T18:17:46.847Z,15.16
2022-09-22T18:20:18.420Z,14.92
2022-09-22T18:22:49.133Z,15.03
2022-09-22T18:25:19.371Z,14.76
2022-09-22T18:27:48.470Z,14.92
2022-09-22T18:30:17.103Z,14.89
2022-09-22T18:32:44.146Z,14.90
2022-09-22T18:35:12.778Z,14.57
2022-09-22T18:37:39.931Z,14.57
2022-09-22T18:40:08.022Z,14.51
2022-09-22T18:42:36.416Z,14.56
2022-09-22T18:45:03.771Z,14.54
2022-09-22T18:47:30.559Z,14.31
2022-09-22T18:50:00.846Z,14.46
2022-09-22T18:52:27.574Z,14.39
2022-09-22T18:54:54.685Z,14.41
2022-09-22T18:57:25.547Z,14.37
2022-09-22T18:59:53.915Z,14.35
2022-09-22T19:02:22.606Z,14.31
2022-09-22T19:04:51.177Z,14.23
2022-09-22T19:07:41.506Z,13.96
2022-09-22T19:10:12.846Z,13.85
2022-09-22T19:12:39.997Z,13.71
2022-09-22T19:15:18.663Z,13.71
2022-09-22T19:17:48.483Z,13.57
2022-09-22T19:20:18.780Z,13.58
2022-09-22T19:22:46.956Z,13.30
2022-09-22T19:25:32.528Z,13.18
2022-09-22T19:28:00.064Z,12.90
2022-09-22T19:30:30.858Z,12.61
2022-09-22T19:32:59.166Z,12.42
2022-09-22T19:35:27.104Z,12.41
2022-09-22T19:37:54.142Z,12.11
2022-09-22T19:40:24.293Z,12.48
2022-09-22T19:42:53.089Z,12.37
2022-09-22T19:45:21.107Z,12.14
2022-09-22T19:47:47.955Z,12.11
2022-09-22T19:50:15.121Z,12.02
2022-09-22T19:52:41.943Z,11.66
2022-09-22T19:55:11.600Z,11.83
2022-09-22T19:57:41.524Z,11.88
2022-09-22T20:00:17.209Z,11.94
2022-09-22T20:02:44.763Z,11.93
2022-09-22T20:05:20.585Z,11.88
2022-09-22T20:07:48.529Z,12.14
2022-09-22T20:10:17.154Z,12.15
2022-09-22T20:12:43.849Z,12.04
2022-09-22T20:15:15.058Z,11.93
2022-09-22T20:17:46.794Z,11.57
2022-09-22T20:20:19.741Z,11.69
2022-09-22T20:23:08.828Z,11.67
2022-09-22T20:25:35.545Z,11.66
2022-09-22T20:28:02.390Z,11.71
2022-09-22T20:30:32.044Z,11.55
2022-09-22T20:32:59.231Z,11.62
2022-09-22T20:35:25.980Z,11.48
2022-09-22T20:37:58.270Z,11.42
2022-09-22T20:40:26.458Z,11.43
2022-09-22T20:42:56.822Z,11.29
2022-09-22T20:45:25.346Z,11.23
2022-09-22T20:47:52.152Z,11.03
2022-09-22T20:50:21.180Z,11.05
2022-09-22T20:52:48.033Z,11.07
2022-09-22T20:55:15.419Z,11.01
2022-09-22T20:57:47.438Z,10.98
2022-09-22T21:00:17.968Z,10.84
2022-09-22T21:02:44.744Z,10.64
2022-09-22T21:05:11.623Z,10.76
2022-09-22T21:07:38.576Z,10.72
2022-09-22T21:10:24.050Z,10.62
2022-09-22T21:12:54.958Z,10.63
2022-09-22T21:15:22.651Z,10.39
2022-09-22T21:17:50.537Z,10.39
2022-09-22T21:20:17.364Z,10.27
2022-09-22T21:22:45.340Z,10.09
2022-09-22T21:25:12.120Z,9.89
2022-09-22T21:27:39.050Z,9.92
2022-09-22T21:30:29.102Z,10.08
2022-09-22T21:32:56.046Z,10.02
2022-09-22T21:35:22.832Z,10.00
2022-09-22T21:37:49.629Z,9.79
2022-09-22T21:40:17.572Z,9.88
2022-09-22T21:42:44.957Z,9.88
2022-09-22T21:45:12.883Z,9.90
2022-09-22T21:47:39.620Z,9.90
2022-09-22T21:50:06.837Z,9.99
2022-09-22T21:52:33.754Z,9.64
2022-09-22T21:55:00.690Z,9.62
2022-09-22T21:57:52.329Z,9.62
2022-09-22T22:00:31.961Z,9.52
2022-09-22T22:03:25.254Z,9.44
2022-09-22T22:05:52.757Z,9.27
2022-09-22T22:08:19.567Z,9.50
2022-09-22T22:10:46.266Z,9.49
2022-09-22T22:13:13.457Z,9.22
2022-09-22T22:15:41.054Z,9.35
2022-09-22T22:18:08.070Z,9.24
2022-09-22T22:20:35.060Z,9.11
2022-09-22T22:23:01.951Z,8.87
2022-09-22T22:25:28.915Z,9.04
2022-09-22T22:27:55.831Z,9.02
2022-09-22T22:30:22.549Z,8.88
2022-09-22T22:32:50.600Z,9.12
2022-09-22T22:35:17.327Z,9.20
2022-09-22T22:37:46.208Z,9.10
2022-09-22T22:40:13.393Z,8.95
2022-09-22T22:42:40.148Z,9.12
2022-09-22T22:45:07.188Z,9.08
2022-09-22T22:47:34.815Z,8.79
2022-09-22T22:50:01.545Z,8.88
2022-09-22T22:52:28.230Z,8.91
2022-09-22T22:54:59.797Z,8.80
2022-09-22T22:57:27.534Z,8.83
2022-09-22T22:59:54.230Z,8.85
2022-09-22T23:02:21.942Z,8.84
2022-09-22T23:04:48.853Z,8.71
2022-09-22T23:07:15.621Z,8.76
2022-09-22T23:09:42.246Z,8.72
2022-09-22T23:12:10.559Z,8.65
2022-09-22T23:14:37.342Z,8.50
2022-09-22T23:17:04.073Z,8.32
2022-09-22T23:19:30.969Z,8.46
2022-09-22T23:21:59.041Z,8.40
2022-09-22T23:24:25.730Z,8.37
2022-09-22T23:26:52.371Z,8.33
2022-09-22T23:29:19.050Z,8.17
2022-09-22T23:31:45.890Z,8.24
2022-09-22T23:34:12.833Z,8.35
2022-09-22T23:36:39.758Z,8.40
2022-09-22T23:39:06.606Z,8.41
2022-09-22T23:41:35.858Z,8.40
2022-09-22T23:44:04.042Z,8.27
2022-09-22T23:46:31.236Z,8.49
2022-09-22T23:48:59.921Z,8.51
2022-09-22T23:51:28.012Z,8.56
2022-09-22T23:53:56.126Z,8.55
2022-09-22T23:56:24.278Z,8.63
2022-09-22T23:58:51.936Z,8.57
